< < Back
Terminal Aerodrome Forecast


Current Version              Previous Versions:   1  2  3  4  5  6  7  8  9  

Terminal Aerodrome Forecast

459
FTUS42 KCHS 041358 AAC
TAFSAV
TAF AMD
KSAV 041358Z 0414/0512 29007KT P6SM SCT006 OVC010
     FM041430 28007KT P6SM SCT007 BKN015
     FM041530 28006KT P6SM SCT025
     FM042000 22007KT P6SM SCT035 SCT060=

Latest METAR

089
SAUS80 KWBC 050000 RRB
MTRSAV
METAR KSAV 042353Z 19009KT 10SM FEW050 SCT085 SCT200 30/25 A2997 RMK AO2
SLP147 T03000250 10344 20300 53002


USA.gov is the U.S. government's official web portal to all federal, state and local government web resources and services.